createdAt,value
2022-09-12T00:00:16.915Z,15.8
2022-09-12T00:01:33.209Z,16.1
2022-09-12T00:04:05.787Z,16.3
2022-09-12T00:05:21.117Z,15.9
2022-09-12T00:06:36.425Z,15.3
2022-09-12T00:07:52.725Z,16.1
2022-09-12T00:09:09.006Z,15.5
2022-09-12T00:11:41.599Z,16.2
2022-09-12T00:14:14.183Z,16.3
2022-09-12T00:15:30.485Z,16.7
2022-09-12T00:16:46.765Z,16.6
2022-09-12T00:18:03.076Z,16.7
2022-09-12T00:19:19.358Z,18
2022-09-12T00:20:35.652Z,18.1
2022-09-12T00:21:50.984Z,19.1
2022-09-12T00:23:06.287Z,18.8
2022-09-12T00:24:22.585Z,18
2022-09-12T00:25:38.874Z,16.6
2022-09-12T00:26:55.164Z,17.9
2022-09-12T00:28:11.450Z,18.3
2022-09-12T00:29:27.749Z,20.2
2022-09-12T00:30:44.043Z,20.3
2022-09-12T00:32:00.353Z,21.5
2022-09-12T00:33:15.659Z,23
2022-09-12T00:34:31.951Z,23.6
2022-09-12T00:35:47.264Z,22.6
2022-09-12T00:37:02.581Z,22.3
2022-09-12T00:38:18.868Z,21.4
2022-09-12T00:39:35.174Z,21.1
2022-09-12T00:40:51.465Z,20.9
2022-09-12T00:42:07.749Z,20.7
2022-09-12T00:43:24.040Z,19.8
2022-09-12T00:44:40.338Z,20.5
2022-09-12T00:45:56.648Z,18.8
2022-09-12T00:47:12.930Z,18.5
2022-09-12T00:48:29.218Z,18.4
2022-09-12T00:49:44.547Z,17.9
2022-09-12T00:50:59.850Z,18.3
2022-09-12T00:52:16.147Z,17.6
2022-09-12T00:53:32.444Z,17
2022-09-12T00:54:48.743Z,17.7
2022-09-12T00:57:21.326Z,17
2022-09-12T00:58:37.623Z,17.6
2022-09-12T00:59:53.902Z,17.7
2022-09-12T01:01:10.197Z,17.9
2022-09-12T01:02:26.502Z,17.5
2022-09-12T01:04:59.091Z,17.3
2022-09-12T01:06:14.408Z,17.5
2022-09-12T01:07:29.704Z,17.7
2022-09-12T01:08:46.014Z,17.1
2022-09-12T01:10:02.298Z,17.9
2022-09-12T01:12:34.887Z,17.2
2022-09-12T01:13:51.182Z,16.9
2022-09-12T01:15:07.469Z,17.3
2022-09-12T01:17:40.067Z,16.8
2022-09-12T01:20:12.652Z,17.8
2022-09-12T01:21:28.944Z,17.6
2022-09-12T01:22:45.237Z,17.9
2022-09-12T01:24:00.565Z,18
2022-09-12T01:25:15.877Z,18.3
2022-09-12T01:27:48.466Z,19.5
2022-09-12T01:29:04.748Z,19.2
2022-09-12T01:30:21.052Z,19.9
2022-09-12T01:31:37.338Z,18.4
2022-09-12T01:32:53.642Z,19.5
2022-09-12T01:34:09.933Z,19.9
2022-09-12T01:35:26.221Z,19.8
2022-09-12T01:36:42.519Z,19.7
2022-09-12T01:37:58.816Z,19.9
2022-09-12T01:39:15.098Z,20
2022-09-12T01:40:31.387Z,20.4
2022-09-12T01:41:46.713Z,20
2022-09-12T01:43:02.992Z,20.8
2022-09-12T01:44:19.302Z,21
2022-09-12T01:45:35.593Z,20.3
2022-09-12T01:46:51.891Z,20.2
2022-09-12T01:48:08.183Z,20.4
2022-09-12T01:50:40.767Z,18.9
2022-09-12T01:51:57.063Z,19.3
2022-09-12T01:53:13.365Z,18.7
2022-09-12T01:54:28.679Z,19.3
2022-09-12T01:55:43.975Z,18.9
2022-09-12T01:58:16.560Z,19.1
2022-09-12T01:59:32.873Z,19.6
2022-09-12T02:00:49.165Z,18.9
2022-09-12T02:02:05.444Z,19
2022-09-12T02:03:21.745Z,19.6
2022-09-12T02:04:38.050Z,19.2
2022-09-12T02:05:54.338Z,19.4
2022-09-12T02:07:10.632Z,19.5
2022-09-12T02:08:26.932Z,19.5
2022-09-12T02:09:43.212Z,19.4
2022-09-12T02:10:59.520Z,19.2
2022-09-12T02:13:31.111Z,19.9
2022-09-12T02:14:46.425Z,20.1
2022-09-12T02:16:01.751Z,20.2
2022-09-12T02:17:18.038Z,20.1
2022-09-12T02:18:34.329Z,19.9
2022-09-12T02:21:06.909Z,20.8
2022-09-12T02:22:23.220Z,21.1
2022-09-12T02:23:39.499Z,20.8
2022-09-12T02:24:55.810Z,20.5
2022-09-12T02:26:12.087Z,20.2
2022-09-12T02:27:28.392Z,21
2022-09-12T02:28:44.686Z,20.8
2022-09-12T02:30:00.986Z,20.6
2022-09-12T02:31:17.282Z,21.1
2022-09-12T02:32:32.590Z,20.5
2022-09-12T02:33:48.868Z,20.3
2022-09-12T02:36:21.464Z,19.7
2022-09-12T02:37:37.766Z,20.4
2022-09-12T02:38:54.047Z,19.8
2022-09-12T02:40:10.337Z,20.3
2022-09-12T02:41:26.644Z,20
2022-09-12T02:43:59.227Z,20.9
2022-09-12T02:45:15.516Z,21.9
2022-09-12T02:46:31.809Z,22.1
2022-09-12T02:47:48.102Z,22.3
2022-09-12T02:49:03.428Z,22.2
2022-09-12T02:51:36.014Z,23
2022-09-12T02:52:52.314Z,24
2022-09-12T02:54:08.603Z,24.5
2022-09-12T02:55:24.884Z,24.4
2022-09-12T02:56:41.179Z,23.9
2022-09-12T02:57:57.472Z,24.7
2022-09-12T02:59:13.764Z,25.6
2022-09-12T03:00:30.063Z,26.1
2022-09-12T03:01:46.373Z,25.7
2022-09-12T03:03:02.654Z,26.4
2022-09-12T03:04:18.942Z,26.5
2022-09-12T03:05:34.268Z,27.7
2022-09-12T03:06:50.552Z,28.5
2022-09-12T03:08:06.841Z,28.6
2022-09-12T03:09:23.150Z,28.8
2022-09-12T03:10:38.463Z,28.3
2022-09-12T03:11:53.777Z,28.5
2022-09-12T03:13:10.058Z,29.2
2022-09-12T03:14:26.358Z,27.9
2022-09-12T03:15:42.642Z,28.2
2022-09-12T03:16:58.937Z,27.3
2022-09-12T03:18:15.233Z,28.1
2022-09-12T03:19:31.530Z,26.7
2022-09-12T03:22:04.122Z,26.3
2022-09-12T03:23:20.424Z,26.1
2022-09-12T03:24:36.710Z,26.3
2022-09-12T03:25:53.004Z,25.9
2022-09-12T03:27:09.287Z,24.6
2022-09-12T03:29:40.908Z,23.7
2022-09-12T03:30:56.227Z,23.3
2022-09-12T03:32:11.519Z,23.8
2022-09-12T03:33:27.811Z,23.3
2022-09-12T03:34:44.106Z,23.9
2022-09-12T03:37:16.701Z,24.3
2022-09-12T03:38:32.986Z,24.4
2022-09-12T03:39:49.296Z,25.4
2022-09-12T03:41:05.586Z,25
2022-09-12T03:42:21.872Z,25.9
2022-09-12T03:43:38.183Z,27.1
2022-09-12T03:44:54.457Z,27.3
2022-09-12T03:47:27.062Z,31.4
2022-09-12T03:48:42.363Z,32.2
2022-09-12T03:49:58.652Z,33.1
2022-09-12T03:51:14.964Z,33.7
2022-09-12T03:52:31.243Z,33.5
2022-09-12T03:53:47.537Z,34
2022-09-12T03:55:03.834Z,32.6
2022-09-12T03:56:20.137Z,31.5
2022-09-12T03:57:36.425Z,27.8
2022-09-12T04:00:09.004Z,25
2022-09-12T04:01:25.254Z,24.4
2022-09-12T04:02:41.555Z,25.2
2022-09-12T04:03:57.839Z,27.1
2022-09-12T04:05:13.115Z,28.9
2022-09-12T04:06:29.357Z,29.2
2022-09-12T04:07:45.598Z,29.8
2022-09-12T04:09:01.888Z,30.9
2022-09-12T04:10:18.126Z,30.4
2022-09-12T04:11:34.365Z,30.6
2022-09-12T04:12:50.619Z,30.3
2022-09-12T04:14:05.886Z,29.7
2022-09-12T04:15:21.133Z,30.1
2022-09-12T04:17:53.620Z,26.3
2022-09-12T04:19:09.869Z,26.2
2022-09-12T04:20:26.109Z,20.9
2022-09-12T04:22:58.585Z,23.3
2022-09-12T04:24:14.832Z,26.4
2022-09-12T04:25:31.057Z,24.5
2022-09-12T04:28:03.548Z,25.7
2022-09-12T04:29:19.776Z,25.3
2022-09-12T04:30:36.031Z,24.6
2022-09-12T04:31:51.283Z,28.2
2022-09-12T04:33:06.546Z,26.7
2022-09-12T04:34:22.784Z,26.7
2022-09-12T04:35:39.027Z,26.3
2022-09-12T04:38:11.511Z,23.6
2022-09-12T04:39:27.731Z,26.2
2022-09-12T04:40:43.972Z,25.7
2022-09-12T04:42:00.186Z,25.9
2022-09-12T04:43:16.427Z,25.2
2022-09-12T04:45:48.921Z,26
2022-09-12T04:47:05.160Z,26
2022-09-12T04:48:20.406Z,26.6
2022-09-12T04:49:36.663Z,25.6
2022-09-12T04:50:52.902Z,26.8
2022-09-12T04:52:09.136Z,27
2022-09-12T04:53:25.378Z,27.6
2022-09-12T04:54:41.616Z,28
2022-09-12T04:55:57.864Z,30.1
2022-09-12T04:57:14.094Z,29.5
2022-09-12T04:58:30.340Z,28.9
2022-09-12T05:01:02.824Z,29
2022-09-12T05:02:19.054Z,29.5
2022-09-12T05:03:35.300Z,29.8
2022-09-12T05:04:50.562Z,29.7
2022-09-12T05:06:06.795Z,29.5
2022-09-12T05:08:39.284Z,29.7
2022-09-12T05:09:55.522Z,28.6
2022-09-12T05:11:11.749Z,28.9
2022-09-12T05:12:27.988Z,29.2
2022-09-12T05:13:44.232Z,29.2
2022-09-12T05:15:00.473Z,29.1
2022-09-12T05:16:16.716Z,28.2
2022-09-12T05:17:32.949Z,28.7
2022-09-12T05:18:49.192Z,29.3
2022-09-12T05:20:05.430Z,28.7
2022-09-12T05:21:20.685Z,28.1
2022-09-12T05:22:36.924Z,27.6
2022-09-12T05:23:53.170Z,27.2
2022-09-12T05:25:09.419Z,27
2022-09-12T05:26:25.653Z,27
2022-09-12T05:27:40.916Z,25.7
2022-09-12T05:28:56.175Z,25.8
2022-09-12T05:31:28.647Z,24.2
2022-09-12T05:32:44.896Z,23.5
2022-09-12T05:34:01.128Z,24.1
2022-09-12T05:35:17.371Z,24.2
2022-09-12T05:36:33.604Z,23.8
2022-09-12T05:37:49.862Z,23.8
2022-09-12T05:39:06.092Z,23.1
2022-09-12T05:40:22.324Z,23.3
2022-09-12T05:41:38.581Z,23.4
2022-09-12T05:42:54.810Z,23.3
2022-09-12T05:44:11.055Z,23
2022-09-12T05:45:26.317Z,23.2
2022-09-12T05:46:42.547Z,22.6
2022-09-12T05:47:58.783Z,22.8
2022-09-12T05:49:15.020Z,22.8
2022-09-12T05:50:31.268Z,22.5
2022-09-12T05:51:47.517Z,22.7
2022-09-12T05:55:36.233Z,22.8
2022-09-12T05:56:51.497Z,22.9
2022-09-12T05:58:06.748Z,22.1
2022-09-12T05:59:22.995Z,23.2
2022-09-12T06:01:55.468Z,22.8
2022-09-12T06:03:11.708Z,21.8
2022-09-12T06:04:27.950Z,21.9
2022-09-12T06:05:44.192Z,21.8
2022-09-12T06:07:00.423Z,22
2022-09-12T06:09:32.908Z,21.6
2022-09-12T06:10:49.160Z,21.1
2022-09-12T06:12:05.384Z,22.1
2022-09-12T06:13:21.638Z,21.2
2022-09-12T06:14:36.880Z,22.1
2022-09-12T06:17:09.364Z,21.3
2022-09-12T06:18:25.600Z,20.8
2022-09-12T06:19:41.853Z,22.3
2022-09-12T06:20:58.091Z,21.5
2022-09-12T06:22:14.319Z,21.7
2022-09-12T06:23:30.000Z,21.9
2022-09-12T06:24:46.811Z,21.5
2022-09-12T06:26:03.050Z,21.6
2022-09-12T06:27:19.280Z,21.6
2022-09-12T06:28:35.530Z,21.9
2022-09-12T06:29:51.770Z,21.3
2022-09-12T06:31:07.030Z,22.1
2022-09-12T06:32:23.271Z,21.5
2022-09-12T06:33:39.506Z,21.9
2022-09-12T06:34:55.751Z,22.5
2022-09-12T06:36:11.007Z,22.5
2022-09-12T06:37:26.262Z,22.1
2022-09-12T06:38:42.512Z,23.2
2022-09-12T06:39:58.737Z,23.1
2022-09-12T06:41:14.980Z,23.6
2022-09-12T06:42:31.226Z,22.8
2022-09-12T06:43:47.470Z,22.5
2022-09-12T06:45:03.709Z,22.5
2022-09-12T06:47:36.178Z,22.5
2022-09-12T06:48:52.416Z,22.8
2022-09-12T06:50:08.663Z,23.2
2022-09-12T06:51:24.906Z,21.4
2022-09-12T06:52:41.141Z,21.7
2022-09-12T06:55:12.641Z,20.9
2022-09-12T06:56:27.906Z,22.9
2022-09-12T06:57:43.157Z,21.4
2022-09-12T06:58:59.405Z,22.2
2022-09-12T07:00:15.649Z,21.6
2022-09-12T07:01:31.889Z,21.2
2022-09-12T07:02:48.119Z,21.3
2022-09-12T07:04:04.362Z,21.4
2022-09-12T07:05:20.603Z,20.6
2022-09-12T07:06:36.843Z,20.6
2022-09-12T07:07:53.070Z,20.6
2022-09-12T07:10:25.551Z,20.9
2022-09-12T07:11:41.792Z,19.7
2022-09-12T07:12:58.039Z,20.5
2022-09-12T07:14:13.294Z,19
2022-09-12T07:15:29.538Z,19.5
2022-09-12T07:18:02.010Z,18.1
2022-09-12T07:19:18.247Z,19.4
2022-09-12T07:20:34.491Z,19.3
2022-09-12T07:21:50.741Z,18.3
2022-09-12T07:23:06.973Z,18.6
2022-09-12T07:24:23.221Z,17.9
2022-09-12T07:25:39.450Z,18
2022-09-12T07:26:55.694Z,18.3
2022-09-12T07:28:11.933Z,19
2022-09-12T07:29:28.171Z,19
2022-09-12T07:30:43.427Z,19.3
2022-09-12T07:33:15.912Z,19.6
2022-09-12T07:34:32.160Z,18.6
2022-09-12T07:35:48.395Z,16
2022-09-12T07:37:04.639Z,17.1
2022-09-12T07:38:20.879Z,16
2022-09-12T07:40:53.365Z,15.8
2022-09-12T07:42:09.588Z,16.9
2022-09-12T07:43:25.839Z,16.5
2022-09-12T07:44:42.079Z,16.6
2022-09-12T07:45:58.323Z,17.3
2022-09-12T07:48:29.811Z,17.4
2022-09-12T07:49:46.052Z,17.4
2022-09-12T07:51:02.282Z,16.8
2022-09-12T07:52:18.533Z,16.6
2022-09-12T07:53:34.764Z,16.8
2022-09-12T07:54:51.013Z,16.7
2022-09-12T07:56:07.242Z,16.8
2022-09-12T07:57:23.481Z,17.6
2022-09-12T07:58:39.728Z,17.1
2022-09-12T07:59:55.974Z,17
2022-09-12T08:01:12.207Z,16.8
2022-09-12T08:03:44.691Z,16.7
2022-09-12T08:04:59.946Z,16.8
2022-09-12T08:06:16.194Z,16.4
2022-09-12T08:07:32.431Z,16
2022-09-12T08:08:48.678Z,15.8
2022-09-12T08:11:21.141Z,15.6
2022-09-12T08:12:37.396Z,14.9
2022-09-12T08:13:53.637Z,15
2022-09-12T08:15:09.878Z,13.9
2022-09-12T08:16:26.105Z,14
2022-09-12T08:17:42.350Z,14.3
2022-09-12T08:18:58.599Z,14
2022-09-12T08:20:14.839Z,13.7
2022-09-12T08:21:30.000Z,13.2
2022-09-12T08:22:46.327Z,13.4
2022-09-12T08:24:02.575Z,11.9
2022-09-12T08:25:18.798Z,12.7
2022-09-12T08:26:35.042Z,12.9
2022-09-12T08:27:51.284Z,12.9
2022-09-12T08:29:07.523Z,11.9
2022-09-12T08:30:22.792Z,12.3
2022-09-12T08:31:38.045Z,12.2
2022-09-12T08:32:54.293Z,11.4
2022-09-12T08:34:10.534Z,11.3
2022-09-12T08:35:26.762Z,11.1
2022-09-12T08:36:43.015Z,10.7
2022-09-12T08:37:59.240Z,11.5
2022-09-12T08:39:15.484Z,11.7
2022-09-12T08:41:47.955Z,11.8
2022-09-12T08:43:04.210Z,11.2
2022-09-12T08:44:20.455Z,10.9
2022-09-12T08:45:36.693Z,10.3
2022-09-12T08:46:52.924Z,10.1
2022-09-12T08:48:08.182Z,10.1
2022-09-12T08:49:24.429Z,9.5
2022-09-12T08:50:40.662Z,9.8
2022-09-12T08:51:56.894Z,9.3
2022-09-12T08:53:13.148Z,8.2
2022-09-12T08:54:29.379Z,8.6
2022-09-12T08:57:01.861Z,8.8
2022-09-12T08:58:18.111Z,9.1
2022-09-12T08:59:34.337Z,8.9
2022-09-12T09:00:50.587Z,9.2
2022-09-12T09:02:06.825Z,9.5
2022-09-12T09:04:38.323Z,9.2
2022-09-12T09:07:09.829Z,9.4
2022-09-12T09:08:25.117Z,9.1
2022-09-12T09:09:40.368Z,9.2
2022-09-12T09:12:12.838Z,28.6
2022-09-12T09:13:29.074Z,15.7
2022-09-12T09:14:45.321Z,8.9
2022-09-12T09:16:01.556Z,8.3
2022-09-12T09:17:17.810Z,8
2022-09-12T09:18:34.054Z,8.2
2022-09-12T09:19:50.278Z,9.2
2022-09-12T09:21:06.523Z,9.8
2022-09-12T09:22:22.765Z,8.9
2022-09-12T09:23:39.006Z,8.2
2022-09-12T09:24:55.239Z,8.3
2022-09-12T09:27:26.736Z,8.3
2022-09-12T09:28:42.975Z,14.7
2022-09-12T09:29:59.227Z,14.4
2022-09-12T09:31:15.457Z,7.7
2022-09-12T09:32:31.694Z,8.9
2022-09-12T09:35:04.191Z,8.5
2022-09-12T09:36:20.425Z,8.4
2022-09-12T09:37:36.665Z,7.4
2022-09-12T09:38:52.911Z,8.1
2022-09-12T09:40:09.139Z,7.9
2022-09-12T09:41:25.386Z,16.2
2022-09-12T09:42:41.624Z,25.5
2022-09-12T09:43:56.870Z,13.2
2022-09-12T09:45:13.109Z,10.5
2022-09-12T09:46:29.353Z,7.1
2022-09-12T09:47:45.600Z,6.7
2022-09-12T09:50:18.073Z,6.7
2022-09-12T09:51:34.327Z,6.8
2022-09-12T09:52:50.563Z,6.5
2022-09-12T09:54:06.798Z,6.5
2022-09-12T09:55:23.048Z,6.9
2022-09-12T09:57:55.511Z,6.6
2022-09-12T09:59:11.754Z,6.3
2022-09-12T10:00:27.993Z,5.4
2022-09-12T10:01:43.256Z,5.8
2022-09-12T10:02:59.503Z,5.8
2022-09-12T10:04:15.731Z,5.8
2022-09-12T10:05:31.975Z,6.4
2022-09-12T10:06:48.220Z,6.4
2022-09-12T10:08:04.463Z,6.2
2022-09-12T10:09:20.696Z,8.9
2022-09-12T10:10:36.944Z,9.3
2022-09-12T10:11:53.183Z,9.6
2022-09-12T10:13:09.415Z,9
2022-09-12T10:14:25.659Z,9.1
2022-09-12T10:15:41.899Z,10.1
2022-09-12T10:16:57.169Z,8.9
2022-09-12T10:18:12.407Z,8.7
2022-09-12T10:19:28.662Z,9.1
2022-09-12T10:20:44.887Z,9.4
2022-09-12T10:22:01.142Z,8.7
2022-09-12T10:23:17.380Z,9
2022-09-12T10:25:49.862Z,8.9
2022-09-12T10:27:06.101Z,7.9
2022-09-12T10:28:22.340Z,7.9
2022-09-12T10:29:38.572Z,7.9
2022-09-12T10:30:54.820Z,8.2
2022-09-12T10:32:11.048Z,9.2
2022-09-12T10:33:27.294Z,10.4
2022-09-12T10:34:42.549Z,6.9
2022-09-12T10:35:58.791Z,6.9
2022-09-12T10:37:15.024Z,7.5
2022-09-12T10:38:31.278Z,7.5
2022-09-12T10:39:47.518Z,7.5
2022-09-12T10:41:03.758Z,7.1
2022-09-12T10:42:20.003Z,7.5
2022-09-12T10:43:36.232Z,7.1
2022-09-12T10:44:51.491Z,7.6
2022-09-12T10:46:07.731Z,7
2022-09-12T10:47:23.000Z,6.5
2022-09-12T10:48:39.236Z,6.8
2022-09-12T10:51:11.710Z,6.3
2022-09-12T10:53:44.200Z,5.8
2022-09-12T10:55:00.441Z,6.9
2022-09-12T10:56:16.677Z,6.2
2022-09-12T10:57:32.909Z,6.3
2022-09-12T10:58:49.160Z,5.7
2022-09-12T11:00:05.396Z,6
2022-09-12T11:01:21.639Z,5.9
2022-09-12T11:02:36.890Z,5.9
2022-09-12T11:03:52.152Z,6.3
2022-09-12T11:06:24.627Z,6.7
2022-09-12T11:07:40.874Z,6.2
2022-09-12T11:08:57.107Z,5.8
2022-09-12T11:10:13.351Z,5.4
2022-09-12T11:11:29.591Z,5.7
2022-09-12T11:14:02.076Z,5.4
2022-09-12T11:16:34.554Z,5.6
2022-09-12T11:17:50.791Z,5.3
2022-09-12T11:19:07.045Z,8.1
2022-09-12T11:20:22.293Z,5.4
2022-09-12T11:21:38.533Z,5.3
2022-09-12T11:22:53.797Z,5.6
2022-09-12T11:24:10.026Z,5
2022-09-12T11:25:26.264Z,5.1
2022-09-12T11:26:42.521Z,4.7
2022-09-12T11:29:14.994Z,5.3
2022-09-12T11:30:31.238Z,4.4
2022-09-12T11:31:47.482Z,4.6
2022-09-12T11:33:03.714Z,111.2
2022-09-12T11:34:19.951Z,15
2022-09-12T11:36:52.438Z,3.9
2022-09-12T11:38:08.677Z,3.9
2022-09-12T11:39:24.911Z,4
2022-09-12T11:40:40.165Z,4
2022-09-12T11:41:56.407Z,4
2022-09-12T11:43:12.658Z,127.8
2022-09-12T11:44:28.895Z,9.8
2022-09-12T11:45:45.135Z,4.1
2022-09-12T11:47:01.367Z,4.1
2022-09-12T11:48:17.615Z,6.6
2022-09-12T11:49:33.843Z,4.5
2022-09-12T11:52:06.330Z,6.3
2022-09-12T11:53:22.576Z,4.7
2022-09-12T11:54:38.804Z,3.8
2022-09-12T11:55:55.058Z,3.2
2022-09-12T11:57:10.315Z,3.2
2022-09-12T11:59:42.798Z,4.5
2022-09-12T12:00:59.036Z,13.7
2022-09-12T12:02:15.260Z,5.2
2022-09-12T12:03:31.509Z,3.2
2022-09-12T12:04:47.752Z,4
2022-09-12T12:06:03.993Z,2.9
2022-09-12T12:07:20.239Z,2.8
2022-09-12T12:08:36.467Z,3.1
2022-09-12T12:09:52.712Z,3.2
2022-09-12T12:11:08.941Z,2.9
2022-09-12T12:12:25.189Z,3
2022-09-12T12:13:40.446Z,2.9
2022-09-12T12:14:56.678Z,3.3
2022-09-12T12:16:12.936Z,3.4
2022-09-12T12:17:29.178Z,2.9
2022-09-12T12:18:44.438Z,3.1
2022-09-12T12:19:59.695Z,2.9
2022-09-12T12:21:15.925Z,2.9
2022-09-12T12:22:32.162Z,3
2022-09-12T12:23:48.408Z,3.2
2022-09-12T12:25:04.655Z,2.8
2022-09-12T12:26:20.890Z,3.2
2022-09-12T12:27:37.120Z,3.7
2022-09-12T12:28:53.368Z,3.3
2022-09-12T12:30:09.600Z,3.2
2022-09-12T12:31:25.852Z,3.3
2022-09-12T12:32:42.091Z,3.1
2022-09-12T12:33:57.349Z,3.4
2022-09-12T12:35:12.597Z,3.9
2022-09-12T12:37:45.085Z,3.6
2022-09-12T12:39:01.332Z,3.6
2022-09-12T12:40:17.570Z,3.7
2022-09-12T12:41:33.807Z,3.7
2022-09-12T12:42:50.055Z,3.6
2022-09-12T12:45:22.519Z,3.5
2022-09-12T12:46:38.777Z,3.5
2022-09-12T12:47:55.001Z,3.3
2022-09-12T12:49:11.250Z,3.4
2022-09-12T12:50:26.506Z,3.5
2022-09-12T12:52:58.009Z,3.2
2022-09-12T12:54:14.252Z,3
2022-09-12T12:55:30.496Z,3
2022-09-12T12:56:46.725Z,3
2022-09-12T12:58:02.959Z,3.3
2022-09-12T12:59:19.208Z,3.1
2022-09-12T13:00:35.452Z,3.3
2022-09-12T13:01:51.695Z,3.2
2022-09-12T13:03:07.926Z,3.5
2022-09-12T13:04:24.168Z,3.2
2022-09-12T13:05:39.437Z,3.1
2022-09-12T13:08:10.936Z,3.1
2022-09-12T13:09:27.165Z,2.9
2022-09-12T13:10:43.400Z,3
2022-09-12T13:11:59.653Z,3
2022-09-12T13:13:15.891Z,3.1
2022-09-12T13:15:48.371Z,3
2022-09-12T13:17:04.597Z,3
2022-09-12T13:18:20.852Z,2.8
2022-09-12T13:19:37.085Z,2.8
2022-09-12T13:20:53.321Z,2.9
2022-09-12T13:23:25.806Z,2.9
2022-09-12T13:24:41.080Z,2.7
2022-09-12T13:25:56.332Z,2.9
2022-09-12T13:27:12.574Z,2.8
2022-09-12T13:28:28.818Z,2.9
2022-09-12T13:29:45.060Z,2.8
2022-09-12T13:31:01.294Z,3.1
2022-09-12T13:32:17.539Z,2.7
2022-09-12T13:33:33.784Z,2.9
2022-09-12T13:34:50.014Z,2.7
2022-09-12T13:36:06.267Z,2.7
2022-09-12T13:38:38.743Z,2.9
2022-09-12T13:39:54.975Z,2.9
2022-09-12T13:41:11.222Z,2.6
2022-09-12T13:42:26.477Z,2.9
2022-09-12T13:43:42.713Z,3
2022-09-12T13:44:58.950Z,3.1
2022-09-12T13:46:15.192Z,3
2022-09-12T13:47:31.433Z,3.3
2022-09-12T13:48:47.674Z,3.2
2022-09-12T13:50:03.922Z,3.2
2022-09-12T13:51:20.159Z,3.2
2022-09-12T13:52:35.410Z,3.1
2022-09-12T13:53:51.666Z,3.2
2022-09-12T13:55:06.920Z,3.1
2022-09-12T13:56:23.157Z,3.3
2022-09-12T13:57:39.390Z,3.3
2022-09-12T13:58:55.637Z,3.7
2022-09-12T14:01:28.116Z,3.4
2022-09-12T14:02:44.349Z,3.3
2022-09-12T14:04:00.593Z,3.1
2022-09-12T14:05:16.835Z,3.6
2022-09-12T14:06:33.078Z,3.4
2022-09-12T14:09:05.565Z,4.1
2022-09-12T14:10:20.819Z,3.4
2022-09-12T14:11:37.067Z,3.3
2022-09-12T14:12:52.315Z,3.5
2022-09-12T14:14:08.558Z,3.8
2022-09-12T14:15:24.792Z,3.5
2022-09-12T14:16:41.035Z,3.3
2022-09-12T14:17:57.271Z,3.1
2022-09-12T14:19:13.516Z,3.6
2022-09-12T14:20:29.751Z,3.5
2022-09-12T14:21:46.007Z,3.4
2022-09-12T14:23:02.235Z,3.5
2022-09-12T14:24:17.505Z,3.5
2022-09-12T14:25:32.764Z,3.7
2022-09-12T14:26:48.995Z,3.7
2022-09-12T14:29:21.479Z,3.6
2022-09-12T14:30:37.717Z,3.6
2022-09-12T14:31:53.947Z,3.6
2022-09-12T14:34:26.434Z,3.4
2022-09-12T14:35:42.688Z,3.5
2022-09-12T14:36:58.915Z,3.3
2022-09-12T14:39:31.402Z,3.4
2022-09-12T14:40:47.642Z,3.2
2022-09-12T14:42:03.876Z,3.5
2022-09-12T14:43:19.137Z,3.4
2022-09-12T14:44:35.376Z,3.3
2022-09-12T14:47:07.864Z,3.5
2022-09-12T14:48:23.104Z,3.5
2022-09-12T14:49:39.351Z,3.3
2022-09-12T14:50:54.608Z,3.7
2022-09-12T14:52:10.851Z,3.7
2022-09-12T14:54:43.329Z,3.3
2022-09-12T14:55:59.566Z,3.2
2022-09-12T14:57:15.817Z,3.5
2022-09-12T14:58:32.055Z,3.7
2022-09-12T14:59:48.290Z,3.7
2022-09-12T15:02:20.774Z,4
2022-09-12T15:03:37.004Z,3.3
2022-09-12T15:04:53.261Z,3.4
2022-09-12T15:06:08.519Z,3.4
2022-09-12T15:07:23.776Z,3.5
2022-09-12T15:09:56.242Z,3.4
2022-09-12T15:11:12.489Z,3.1
2022-09-12T15:12:28.733Z,3.3
2022-09-12T15:13:44.978Z,2.9
2022-09-12T15:15:01.221Z,3.2
2022-09-12T15:16:17.446Z,3.5
2022-09-12T15:17:33.689Z,3.8
2022-09-12T15:18:49.932Z,3.4
2022-09-12T15:20:06.178Z,3.9
2022-09-12T15:21:22.411Z,3.9
2022-09-12T15:22:38.661Z,4.2
2022-09-12T15:23:53.900Z,3.6
2022-09-12T15:25:10.145Z,3.9
2022-09-12T15:26:26.393Z,3.8
2022-09-12T15:27:42.623Z,3.8
2022-09-12T15:28:58.000Z,3.8
2022-09-12T15:30:15.105Z,3.8
2022-09-12T15:31:31.354Z,3.3
2022-09-12T15:32:47.597Z,3.4
2022-09-12T15:34:02.851Z,3.5
2022-09-12T15:35:19.098Z,3.6
2022-09-12T15:36:34.345Z,3.6
2022-09-12T15:37:50.592Z,3.6
2022-09-12T15:40:23.074Z,3.7
2022-09-12T15:41:39.307Z,3.5
2022-09-12T15:42:55.537Z,3.7
2022-09-12T15:44:11.780Z,3.4
2022-09-12T15:45:28.036Z,3.6
2022-09-12T15:46:44.268Z,3.4
2022-09-12T15:48:00.501Z,3.3
2022-09-12T15:49:16.744Z,3.5
2022-09-12T15:50:32.995Z,3.3
2022-09-12T15:51:49.226Z,3.3
2022-09-12T15:53:04.483Z,3.5
2022-09-12T15:54:20.720Z,3.7
2022-09-12T15:55:36.963Z,3.7
2022-09-12T15:56:53.198Z,3.3
2022-09-12T15:58:09.452Z,3.4
2022-09-12T15:59:25.692Z,3.6
2022-09-12T16:00:41.931Z,3.7
2022-09-12T16:03:13.425Z,3.2
2022-09-12T16:05:44.929Z,3.5
2022-09-12T16:07:00.189Z,3.5
2022-09-12T16:08:15.443Z,3.5
2022-09-12T16:10:47.917Z,3.5
2022-09-12T16:12:04.151Z,3.8
2022-09-12T16:13:20.392Z,3.5
2022-09-12T16:14:36.645Z,3.6
2022-09-12T16:15:52.882Z,3.6
2022-09-12T16:18:25.351Z,3.8
2022-09-12T16:19:41.602Z,3.7
2022-09-12T16:20:57.835Z,3.7
2022-09-12T16:22:14.086Z,3.7
2022-09-12T16:23:30.316Z,3.6
2022-09-12T16:24:45.570Z,3.7
2022-09-12T16:26:01.814Z,3.4
2022-09-12T16:27:18.064Z,3.5
2022-09-12T16:28:34.300Z,3.6
2022-09-12T16:29:50.530Z,3.5
2022-09-12T16:31:06.780Z,3.6
2022-09-12T16:33:39.249Z,3.8
2022-09-12T16:34:55.497Z,3.4
2022-09-12T16:36:11.736Z,3.7
2022-09-12T16:37:27.977Z,3.2
2022-09-12T16:38:44.212Z,3.5
2022-09-12T16:41:16.702Z,3.1
2022-09-12T16:42:31.954Z,2.9
2022-09-12T16:43:48.200Z,3
2022-09-12T16:46:20.669Z,3.1
2022-09-12T16:47:36.913Z,3.1
2022-09-12T16:48:53.145Z,3.5
2022-09-12T16:50:09.401Z,3.2
2022-09-12T16:51:25.631Z,3
2022-09-12T16:52:41.867Z,3.1
2022-09-12T16:53:58.121Z,3.3
2022-09-12T16:55:14.362Z,3.2
2022-09-12T16:56:30.605Z,3
2022-09-12T16:57:46.839Z,3.1
2022-09-12T16:59:02.103Z,3
2022-09-12T17:00:18.324Z,2.9
2022-09-12T17:01:34.570Z,2.8
2022-09-12T17:05:23.287Z,2.8
2022-09-12T17:06:39.531Z,2.9
2022-09-12T17:07:55.774Z,3
2022-09-12T17:09:12.011Z,3.1
2022-09-12T17:11:44.489Z,3.2
2022-09-12T17:13:00.733Z,3.1
2022-09-12T17:14:16.968Z,3.4
2022-09-12T17:15:32.239Z,3.2
2022-09-12T17:16:48.475Z,3.7
2022-09-12T17:19:20.946Z,3.5
2022-09-12T17:20:37.180Z,3.3
2022-09-12T17:21:53.421Z,3.4
2022-09-12T17:23:09.677Z,3.3
2022-09-12T17:24:25.904Z,3.4
2022-09-12T17:26:58.396Z,3.4
2022-09-12T17:28:14.626Z,3.4
2022-09-12T17:29:30.865Z,3.3
2022-09-12T17:30:47.102Z,3.3
2022-09-12T17:32:02.361Z,3.4
2022-09-12T17:34:34.848Z,3.7
2022-09-12T17:35:51.080Z,3.7
2022-09-12T17:37:07.336Z,3.8
2022-09-12T17:38:23.566Z,3.6
2022-09-12T17:39:39.802Z,3.7
2022-09-12T17:42:11.311Z,3.9
2022-09-12T17:43:26.573Z,3.8
2022-09-12T17:44:42.805Z,4
2022-09-12T17:45:59.044Z,3.7
2022-09-12T17:47:15.299Z,4.1
2022-09-12T17:48:31.530Z,4.2
2022-09-12T17:49:47.773Z,4.1
2022-09-12T17:51:04.002Z,4.1
2022-09-12T17:52:20.260Z,4.5
2022-09-12T17:53:36.482Z,4.1
2022-09-12T17:54:52.738Z,4.3
2022-09-12T17:56:08.968Z,4.5
2022-09-12T17:57:25.208Z,4.5
2022-09-12T17:58:41.446Z,4.4
2022-09-12T17:59:56.700Z,4.2
2022-09-12T18:01:11.980Z,4.1
2022-09-12T18:02:27.218Z,4.4
2022-09-12T18:04:59.714Z,4.4
2022-09-12T18:06:15.997Z,4.4
2022-09-12T18:07:32.288Z,4.3
2022-09-12T18:08:48.583Z,4.2
2022-09-12T18:10:04.878Z,4.1
2022-09-12T18:12:37.476Z,4.5
2022-09-12T18:13:53.760Z,4.9
2022-09-12T18:15:10.061Z,4.2
2022-09-12T18:16:26.353Z,4.2
2022-09-12T18:17:41.661Z,4.3
2022-09-12T18:18:56.970Z,4.3
2022-09-12T18:20:13.277Z,4.5
2022-09-12T18:21:29.570Z,4.5
2022-09-12T18:22:45.852Z,4.2
2022-09-12T18:24:02.144Z,4.2
2022-09-12T18:25:18.456Z,4.2
2022-09-12T18:26:34.736Z,4.4
2022-09-12T18:27:51.000Z,4.6
2022-09-12T18:29:07.328Z,4.1
2022-09-12T18:30:23.625Z,4.6
2022-09-12T18:31:38.940Z,4.4
2022-09-12T18:32:54.249Z,4.5
2022-09-12T18:34:10.555Z,4.4
2022-09-12T18:35:26.830Z,5.5
2022-09-12T18:36:43.132Z,4.7
2022-09-12T18:37:59.417Z,4.9
2022-09-12T18:39:15.727Z,4.8
2022-09-12T18:40:32.011Z,4.7
2022-09-12T18:41:48.304Z,4.5
2022-09-12T18:43:04.592Z,4.6
2022-09-12T18:44:20.897Z,4.9
2022-09-12T18:45:36.206Z,4.7
2022-09-12T18:46:51.515Z,4.5
2022-09-12T18:48:07.818Z,4.8
2022-09-12T18:49:24.111Z,4.6
2022-09-12T18:50:40.414Z,4.4
2022-09-12T18:51:56.698Z,4.4
2022-09-12T18:53:12.995Z,4.9
2022-09-12T18:54:29.278Z,4.7
2022-09-12T18:55:45.576Z,4.7
2022-09-12T18:58:18.169Z,4.9
2022-09-12T18:59:34.469Z,4.6
2022-09-12T19:00:50.765Z,4.4
2022-09-12T19:02:07.045Z,4.6
2022-09-12T19:03:22.371Z,4.8
2022-09-12T19:04:38.664Z,4.6
2022-09-12T19:05:54.946Z,4.4
2022-09-12T19:07:11.255Z,4.5
2022-09-12T19:08:27.547Z,4.8
2022-09-12T19:09:43.826Z,4.8
2022-09-12T19:11:00.129Z,5.1
2022-09-12T19:12:16.421Z,5
2022-09-12T19:13:32.717Z,4.8
2022-09-12T19:14:49.005Z,4.8
2022-09-12T19:16:05.298Z,4.8
2022-09-12T19:17:21.604Z,4.6
2022-09-12T19:18:37.895Z,4.6